Time;durP1;ratioP1;P1;durP2;ratioP2;P2;SDS_P1;SDS_P2;PMS_P1;PMS_P2;Temp;Humidity;BMP_temperature;BMP_pressure;BME280_temperature;BME280_humidity;BME280_pressure;Samples;Min_cycle;Max_cycle;Signal;HPM_P1;HPM_P2
2022/04/09 00:02:18;;;;;;;0.40;0.40;;;;;;;;;;4981043;28;20434;-61
2022/04/09 00:05:04;;;;;;;0.40;0.40;;;;;;;;;;4998372;28;20258;-69
2022/04/09 00:07:49;;;;;;;0.50;0.50;;;;;;;;;;4994888;28;20021;-65
2022/04/09 00:10:34;;;;;;;0.85;0.60;;;;;;;;;;5016328;28;21574;-62
2022/04/09 00:13:20;;;;;;;0.40;0.40;;;;;;;;;;4994409;28;20022;-63
2022/04/09 00:16:05;;;;;;;2.05;0.82;;;;;;;;;;4994068;28;20037;-62
2022/04/09 00:18:50;;;;;;;0.85;0.60;;;;;;;;;;4995329;28;20018;-63
2022/04/09 00:21:36;;;;;;;0.50;0.50;;;;;;;;;;4975884;28;20420;-66
2022/04/09 00:24:21;;;;;;;0.40;0.40;;;;;;;;;;4994564;28;20018;-69
2022/04/09 00:27:06;;;;;;;0.63;0.40;;;;;;;;;;4998604;28;20057;-70
2022/04/09 00:29:52;;;;;;;0.50;0.50;;;;;;;;;;4955768;28;20546;-69
2022/04/09 00:32:38;;;;;;;0.50;0.50;;;;;;;;;;4957953;28;20082;-70
2022/04/09 00:35:23;;;;;;;0.50;0.50;;;;;;;;;;4967848;28;20039;-69
2022/04/09 00:38:08;;;;;;;0.60;0.60;;;;;;;;;;4974222;28;20030;-69
2022/04/09 00:40:53;;;;;;;0.50;0.50;;;;;;;;;;4968117;28;20045;-62
2022/04/09 00:43:40;;;;;;;0.50;0.50;;;;;;;;;;4969062;28;20522;-68
2022/04/09 00:46:25;;;;;;;0.60;0.60;;;;;;;;;;4981122;28;20033;-68
2022/04/09 00:49:11;;;;;;;0.50;0.50;;;;;;;;;;4986301;28;20492;-66
2022/04/09 00:51:56;;;;;;;0.43;0.43;;;;;;;;;;4985480;28;20435;-70
2022/04/09 00:54:42;;;;;;;0.50;0.50;;;;;;;;;;4982758;28;20498;-68
2022/04/09 00:57:29;;;;;;;0.50;0.50;;;;;;;;;;4967787;28;20118;-69
2022/04/09 01:00:15;;;;;;;0.40;0.40;;;;;;;;;;4969309;28;20422;-67
2022/04/09 01:03:01;;;;;;;0.40;0.40;;;;;;;;;;4990574;28;20263;-62
2022/04/09 01:05:48;;;;;;;0.50;0.50;;;;;;;;;;4982037;28;20037;-62
2022/04/09 01:08:33;;;;;;;0.63;0.63;;;;;;;;;;4968475;28;20033;-60
2022/04/09 01:11:18;;;;;;;0.98;0.60;;;;;;;;;;4996762;28;20030;-63
2022/04/09 01:14:03;;;;;;;0.40;0.40;;;;;;;;;;4982025;28;20030;-62
2022/04/09 01:16:49;;;;;;;0.50;0.50;;;;;;;;;;4967924;28;20031;-62
2022/04/09 01:19:34;;;;;;;0.50;0.50;;;;;;;;;;4993242;28;20038;-68
2022/04/09 01:22:19;;;;;;;0.60;0.60;;;;;;;;;;4968081;28;23092;-61
2022/04/09 01:25:04;;;;;;;0.60;0.60;;;;;;;;;;4961619;28;20026;-61
2022/04/09 01:27:50;;;;;;;0.63;0.63;;;;;;;;;;5020451;28;20033;-61
2022/04/09 01:30:36;;;;;;;1.08;0.77;;;;;;;;;;4998584;28;20033;-61
2022/04/09 01:33:21;;;;;;;0.73;0.73;;;;;;;;;;5022612;28;20029;-63
2022/04/09 01:36:07;;;;;;;1.58;0.73;;;;;;;;;;5030719;28;20069;-69
2022/04/09 01:38:52;;;;;;;1.00;0.85;;;;;;;;;;4983478;28;20018;-66
2022/04/09 01:41:38;;;;;;;0.93;0.93;;;;;;;;;;5011499;28;20025;-64
2022/04/09 01:44:23;;;;;;;0.60;0.60;;;;;;;;;;4991605;28;20362;-64
2022/04/09 01:47:08;;;;;;;1.30;0.85;;;;;;;;;;5001033;28;20120;-64
2022/04/09 01:49:53;;;;;;;1.00;0.90;;;;;;;;;;5002801;28;20030;-65
2022/04/09 01:52:39;;;;;;;0.88;0.88;;;;;;;;;;4990088;28;20038;-64
2022/04/09 01:55:24;;;;;;;1.10;0.88;;;;;;;;;;4996450;28;20073;-68
2022/04/09 01:58:09;;;;;;;1.77;1.10;;;;;;;;;;4997375;28;20025;-60
2022/04/09 02:00:58;;;;;;;1.67;1.00;;;;;;;;;;5031759;28;20073;-63
2022/04/09 02:03:44;;;;;;;1.48;1.20;;;;;;;;;;4995705;28;20032;-63
2022/04/09 02:06:30;;;;;;;2.95;1.08;;;;;;;;;;5000519;28;20084;-64
2022/04/09 02:09:15;;;;;;;1.27;1.08;;;;;;;;;;4989871;28;20022;-60
2022/04/09 02:12:01;;;;;;;2.53;1.30;;;;;;;;;;4999789;28;20069;-61
2022/04/09 02:14:46;;;;;;;3.97;1.25;;;;;;;;;;4995001;28;20121;-64
2022/04/09 02:17:31;;;;;;;3.60;1.48;;;;;;;;;;4999659;28;20393;-62
2022/04/09 02:20:17;;;;;;;3.08;1.63;;;;;;;;;;4972543;28;20040;-62
2022/04/09 02:23:02;;;;;;;2.78;1.50;;;;;;;;;;4999386;28;20033;-60
2022/04/09 02:25:47;;;;;;;1.55;1.45;;;;;;;;;;4997234;28;20504;-60
2022/04/09 02:28:34;;;;;;;2.70;1.48;;;;;;;;;;4996632;28;20030;-62
2022/04/09 02:31:20;;;;;;;4.05;1.75;;;;;;;;;;4983941;28;20027;-66
2022/04/09 02:34:05;;;;;;;4.15;1.50;;;;;;;;;;4989486;28;20029;-71
2022/04/09 02:36:50;;;;;;;1.90;1.73;;;;;;;;;;5026986;28;20084;-67
2022/04/09 02:39:36;;;;;;;1.63;1.45;;;;;;;;;;5024525;28;20456;-68
2022/04/09 02:42:21;;;;;;;1.92;1.60;;;;;;;;;;5008314;28;20022;-68
2022/04/09 02:45:07;;;;;;;1.90;1.40;;;;;;;;;;4998296;28;20124;-70
2022/04/09 02:47:53;;;;;;;1.85;1.70;;;;;;;;;;4995628;28;20132;-68
2022/04/09 02:50:38;;;;;;;2.85;2.05;;;;;;;;;;5023092;28;20021;-62
2022/04/09 02:53:23;;;;;;;2.08;1.60;;;;;;;;;;4996286;28;20018;-69
2022/04/09 02:56:08;;;;;;;3.50;1.55;;;;;;;;;;5012381;28;20034;-68
2022/04/09 02:58:54;;;;;;;2.75;1.70;;;;;;;;;;4995260;28;20021;-69
2022/04/09 03:01:41;;;;;;;1.67;1.42;;;;;;;;;;4995186;28;20106;-68
2022/04/09 03:04:26;;;;;;;1.95;1.40;;;;;;;;;;4996926;28;20067;-69
2022/04/09 03:07:11;;;;;;;2.40;1.60;;;;;;;;;;5022354;28;20436;-68
2022/04/09 03:09:56;;;;;;;3.05;1.70;;;;;;;;;;5022615;28;20281;-70
2022/04/09 03:12:46;;;;;;;2.05;1.50;;;;;;;;;;4998230;28;20053;-63
2022/04/09 03:15:31;;;;;;;1.92;1.50;;;;;;;;;;5009691;28;20046;-62
2022/04/09 03:18:16;;;;;;;1.83;1.40;;;;;;;;;;4994856;28;20032;-65
2022/04/09 03:21:02;;;;;;;1.75;1.52;;;;;;;;;;4999576;28;20381;-61
2022/04/09 03:23:47;;;;;;;1.45;1.35;;;;;;;;;;5009745;28;20022;-63
2022/04/09 03:26:32;;;;;;;1.70;1.60;;;;;;;;;;5018326;28;20408;-60
2022/04/09 03:29:18;;;;;;;1.52;1.42;;;;;;;;;;5022793;28;20033;-66
2022/04/09 03:32:03;;;;;;;3.40;2.13;;;;;;;;;;5013963;28;20265;-64
2022/04/09 03:34:48;;;;;;;1.88;1.50;;;;;;;;;;5012336;28;20157;-66
2022/04/09 03:37:35;;;;;;;3.05;2.00;;;;;;;;;;5021457;28;20509;-67
2022/04/09 03:40:21;;;;;;;3.08;1.92;;;;;;;;;;4981789;28;20025;-65
2022/04/09 03:43:06;;;;;;;2.58;2.35;;;;;;;;;;4995374;28;20030;-68
2022/04/09 03:45:51;;;;;;;3.13;2.63;;;;;;;;;;4998747;28;20084;-61
2022/04/09 03:48:36;;;;;;;2.75;2.42;;;;;;;;;;4993658;28;20029;-73
2022/04/09 03:51:22;;;;;;;3.78;2.90;;;;;;;;;;5023413;28;20030;-71
2022/04/09 03:54:07;;;;;;;4.43;3.22;;;;;;;;;;4972260;28;20038;-70
2022/04/09 03:56:53;;;;;;;4.38;3.03;;;;;;;;;;5029648;28;20065;-74
2022/04/09 03:59:38;;;;;;;6.55;3.67;;;;;;;;;;5007112;28;20503;-71
2022/04/09 04:02:24;;;;;;;9.77;4.20;;;;;;;;;;5022265;28;20132;-70
2022/04/09 04:05:09;;;;;;;6.22;3.72;;;;;;;;;;4980395;28;20037;-60
2022/04/09 04:07:55;;;;;;;6.40;4.55;;;;;;;;;;4999487;28;20404;-61
2022/04/09 04:10:40;;;;;;;7.43;4.82;;;;;;;;;;4994701;28;20029;-60
2022/04/09 04:13:25;;;;;;;6.78;5.05;;;;;;;;;;4994996;28;20425;-62
2022/04/09 04:16:11;;;;;;;7.95;5.55;;;;;;;;;;4995690;28;20481;-60
2022/04/09 04:18:56;;;;;;;9.52;5.97;;;;;;;;;;4999496;28;20029;-62
2022/04/09 04:21:43;;;;;;;17.80;7.28;;;;;;;;;;4994570;28;20069;-65
2022/04/09 04:24:28;;;;;;;10.70;5.30;;;;;;;;;;4993821;28;20112;-60
2022/04/09 04:27:13;;;;;;;11.35;6.70;;;;;;;;;;4994676;28;20395;-60
2022/04/09 04:29:59;;;;;;;14.13;7.68;;;;;;;;;;5018101;28;20036;-59
2022/04/09 04:32:45;;;;;;;9.70;7.80;;;;;;;;;;5022090;28;20033;-62
2022/04/09 04:35:30;;;;;;;11.43;7.35;;;;;;;;;;5007167;28;20528;-61
2022/04/09 04:38:15;;;;;;;15.65;7.45;;;;;;;;;;4994783;28;20116;-61
2022/04/09 04:41:02;;;;;;;12.02;8.05;;;;;;;;;;4993499;28;20042;-66
2022/04/09 04:43:51;;;;;;;12.52;7.88;;;;;;;;;;4981334;28;20022;-71
2022/04/09 04:46:38;;;;;;;12.55;8.10;;;;;;;;;;5020959;28;20029;-69
2022/04/09 04:49:23;;;;;;;13.15;8.07;;;;;;;;;;5007350;28;20025;-71
2022/04/09 04:52:08;;;;;;;12.13;7.32;;;;;;;;;;5002923;28;20033;-70
2022/04/09 04:54:54;;;;;;;11.50;7.90;;;;;;;;;;5007494;28;20042;-70
2022/04/09 04:57:43;;;;;;;13.38;7.68;;;;;;;;;;5015533;28;20389;-70
2022/04/09 05:00:29;;;;;;;14.93;7.30;;;;;;;;;;4992729;28;20041;-71
2022/04/09 05:03:15;;;;;;;10.13;6.90;;;;;;;;;;4989741;28;20030;-69
2022/04/09 05:06:00;;;;;;;12.93;7.68;;;;;;;;;;4996905;28;20018;-72
2022/04/09 05:08:45;;;;;;;11.90;7.57;;;;;;;;;;4998235;28;20063;-73
2022/04/09 05:11:30;;;;;;;12.82;6.78;;;;;;;;;;4983657;28;20111;-71
2022/04/09 05:14:15;;;;;;;13.27;6.65;;;;;;;;;;4996853;28;20496;-71
2022/04/09 05:17:01;;;;;;;10.10;7.20;;;;;;;;;;5004003;28;20125;-69
2022/04/09 05:19:46;;;;;;;9.15;6.53;;;;;;;;;;4992203;28;20156;-73
2022/04/09 05:22:31;;;;;;;14.98;6.65;;;;;;;;;;5002031;28;20053;-73
2022/04/09 05:25:20;;;;;;;15.75;7.28;;;;;;;;;;4998475;28;20046;-74
2022/04/09 05:28:08;;;;;;;11.67;6.90;;;;;;;;;;4989718;28;20190;-76
2022/04/09 05:30:53;;;;;;;8.98;6.10;;;;;;;;;;5012143;28;20030;-72
2022/04/09 05:33:38;;;;;;;11.70;6.50;;;;;;;;;;5024358;28;20061;-72
2022/04/09 05:36:24;;;;;;;10.07;6.85;;;;;;;;;;5010910;28;20034;-67
2022/04/09 05:39:11;;;;;;;10.50;6.30;;;;;;;;;;4996027;28;20437;-60
2022/04/09 05:41:56;;;;;;;9.60;6.00;;;;;;;;;;4998172;28;20393;-61
2022/04/09 05:44:41;;;;;;;8.80;5.93;;;;;;;;;;4997135;28;20703;-60
2022/04/09 05:47:27;;;;;;;9.93;5.60;;;;;;;;;;5023616;28;20404;-60
2022/04/09 05:50:13;;;;;;;10.00;6.50;;;;;;;;;;4997311;28;20049;-63
2022/04/09 05:52:58;;;;;;;10.98;6.60;;;;;;;;;;5010432;28;20058;-62
2022/04/09 05:55:43;;;;;;;13.48;6.90;;;;;;;;;;4997333;28;20034;-68
2022/04/09 05:58:30;;;;;;;12.13;6.55;;;;;;;;;;5002117;28;20499;-66
2022/04/09 06:01:15;;;;;;;11.95;6.75;;;;;;;;;;4998020;28;20044;-66
2022/04/09 06:04:01;;;;;;;8.05;5.68;;;;;;;;;;5023701;28;20018;-67
2022/04/09 06:06:47;;;;;;;10.13;5.80;;;;;;;;;;4997586;28;20038;-67
2022/04/09 06:09:32;;;;;;;9.30;5.95;;;;;;;;;;5000838;28;20425;-66
2022/04/09 06:12:18;;;;;;;8.30;5.30;;;;;;;;;;4996002;28;20432;-73
2022/04/09 06:15:03;;;;;;;9.20;5.38;;;;;;;;;;5021567;28;20385;-70
2022/04/09 06:17:49;;;;;;;8.98;5.63;;;;;;;;;;4996347;28;20501;-70
2022/04/09 06:20:34;;;;;;;9.98;5.97;;;;;;;;;;5023885;28;20025;-71
2022/04/09 06:23:19;;;;;;;11.13;5.03;;;;;;;;;;5017321;28;20033;-72
2022/04/09 06:26:04;;;;;;;8.45;5.25;;;;;;;;;;5021966;28;20042;-69
2022/04/09 06:28:50;;;;;;;9.23;5.10;;;;;;;;;;5022674;28;20033;-72
2022/04/09 06:31:35;;;;;;;10.02;4.38;;;;;;;;;;4983708;28;20041;-65
2022/04/09 06:34:20;;;;;;;9.55;4.78;;;;;;;;;;4995781;28;20053;-74
2022/04/09 06:37:06;;;;;;;10.32;3.97;;;;;;;;;;4998341;28;20038;-74
2022/04/09 06:39:51;;;;;;;8.60;3.72;;;;;;;;;;4995331;28;20037;-74
2022/04/09 06:42:37;;;;;;;8.43;4.40;;;;;;;;;;4995790;28;20495;-74
2022/04/09 06:45:22;;;;;;;6.10;3.50;;;;;;;;;;4981841;28;20053;-74
2022/04/09 06:48:07;;;;;;;10.80;4.72;;;;;;;;;;4996860;28;20033;-75
2022/04/09 06:50:52;;;;;;;6.70;4.25;;;;;;;;;;5008459;28;20140;-75
2022/04/09 06:53:38;;;;;;;8.15;3.97;;;;;;;;;;4999855;28;20109;-63
2022/04/09 06:56:23;;;;;;;7.47;4.10;;;;;;;;;;4993977;28;20037;-62
2022/04/09 06:59:09;;;;;;;6.88;4.20;;;;;;;;;;5020879;28;20053;-61
2022/04/09 07:01:54;;;;;;;6.35;3.88;;;;;;;;;;5028729;28;20525;-62
2022/04/09 07:04:39;;;;;;;11.55;4.90;;;;;;;;;;5000449;28;20567;-62
2022/04/09 07:07:25;;;;;;;7.47;3.95;;;;;;;;;;4992711;28;20034;-68
2022/04/09 07:10:11;;;;;;;11.38;3.92;;;;;;;;;;5009474;28;20204;-67
2022/04/09 07:12:56;;;;;;;8.30;4.63;;;;;;;;;;4968629;28;20034;-67
2022/04/09 07:15:41;;;;;;;8.35;4.30;;;;;;;;;;5003012;28;20480;-67
2022/04/09 07:18:26;;;;;;;8.98;3.83;;;;;;;;;;4978029;28;20030;-68
2022/04/09 07:21:12;;;;;;;7.90;4.35;;;;;;;;;;5004166;28;20037;-69
2022/04/09 07:23:57;;;;;;;9.40;4.47;;;;;;;;;;5002165;28;20120;-70
2022/04/09 07:26:43;;;;;;;7.35;4.00;;;;;;;;;;4985300;28;20050;-64
2022/04/09 07:29:29;;;;;;;7.95;4.20;;;;;;;;;;5008957;28;20037;-70
2022/04/09 07:32:14;;;;;;;6.57;4.32;;;;;;;;;;4987360;28;20517;-71
2022/04/09 07:34:59;;;;;;;6.97;4.20;;;;;;;;;;5003167;28;20049;-72
2022/04/09 07:37:46;;;;;;;9.65;4.40;;;;;;;;;;5014637;28;20030;-71
2022/04/09 07:40:32;;;;;;;8.77;3.85;;;;;;;;;;5006108;28;20066;-71
2022/04/09 07:43:17;;;;;;;6.57;4.10;;;;;;;;;;4988725;28;20030;-72
2022/04/09 07:46:02;;;;;;;7.72;3.58;;;;;;;;;;4986854;28;20030;-68
2022/04/09 07:48:48;;;;;;;6.63;3.70;;;;;;;;;;4989689;28;20022;-62
2022/04/09 07:51:33;;;;;;;6.53;3.30;;;;;;;;;;4984506;28;20061;-62
2022/04/09 07:54:18;;;;;;;8.70;3.63;;;;;;;;;;4987985;28;20486;-62
2022/04/09 07:57:04;;;;;;;7.95;3.70;;;;;;;;;;5003645;28;20037;-65
2022/04/09 07:59:49;;;;;;;8.88;3.33;;;;;;;;;;5008106;28;20030;-70
2022/04/09 08:02:35;;;;;;;14.10;4.00;;;;;;;;;;4986886;28;20050;-70
2022/04/09 08:05:20;;;;;;;9.05;3.92;;;;;;;;;;4991739;28;20048;-70
2022/04/09 08:08:07;;;;;;;8.63;3.63;;;;;;;;;;4984171;28;20100;-68
2022/04/09 08:10:52;;;;;;;8.45;3.60;;;;;;;;;;5001937;28;20032;-71
2022/04/09 08:13:38;;;;;;;7.15;3.50;;;;;;;;;;4987698;28;20382;-70
2022/04/09 08:16:25;;;;;;;6.97;3.33;;;;;;;;;;4998970;28;20044;-67
2022/04/09 08:19:10;;;;;;;6.60;3.20;;;;;;;;;;4991831;28;20032;-70
2022/04/09 08:21:57;;;;;;;7.25;2.92;;;;;;;;;;4985771;28;20113;-73
2022/04/09 08:24:43;;;;;;;7.45;3.60;;;;;;;;;;5013397;28;20026;-69
2022/04/09 08:27:28;;;;;;;7.72;3.45;;;;;;;;;;5010398;28;20057;-67
2022/04/09 08:30:14;;;;;;;9.65;3.47;;;;;;;;;;5018951;28;20030;-68
2022/04/09 08:33:04;;;;;;;10.98;3.28;;;;;;;;;;4973840;28;20153;-69
2022/04/09 08:35:49;;;;;;;5.85;2.97;;;;;;;;;;4987321;28;20038;-71
2022/04/09 08:38:35;;;;;;;7.25;2.97;;;;;;;;;;4986106;28;20113;-71
2022/04/09 08:41:20;;;;;;;7.53;3.20;;;;;;;;;;4982425;28;20037;-65
2022/04/09 08:44:06;;;;;;;9.15;3.35;;;;;;;;;;4995919;28;20149;-65
2022/04/09 08:46:53;;;;;;;7.55;3.33;;;;;;;;;;5014663;28;20045;-64
2022/04/09 08:49:40;;;;;;;5.30;2.65;;;;;;;;;;5013888;28;20067;-65
2022/04/09 08:52:26;;;;;;;9.05;3.95;;;;;;;;;;5016648;28;20036;-64
2022/04/09 08:55:13;;;;;;;7.18;3.20;;;;;;;;;;4988264;28;20038;-62
2022/04/09 08:57:58;;;;;;;6.00;3.03;;;;;;;;;;4987104;28;20101;-64
2022/04/09 09:00:45;;;;;;;7.07;3.42;;;;;;;;;;4987737;28;20041;-68
2022/04/09 09:03:31;;;;;;;9.88;3.10;;;;;;;;;;4988691;28;20026;-68
2022/04/09 09:06:27;;;;;;;16.00;3.30;;;;;;;;;;5012221;28;20026;-67
2022/04/09 09:09:29;;;;;;;7.57;3.03;;;;;;;;;;5005335;28;20557;-68
2022/04/09 09:12:25;;;;;;;11.10;3.33;;;;;;;;;;5008785;28;20027;-70
2022/04/09 09:15:11;;;;;;;11.35;3.75;;;;;;;;;;5017521;28;20043;-69
2022/04/09 09:17:57;;;;;;;10.05;4.13;;;;;;;;;;5001857;28;20029;-70
2022/04/09 09:20:47;;;;;;;9.43;3.58;;;;;;;;;;4985801;28;20037;-72
2022/04/09 09:23:33;;;;;;;8.45;2.88;;;;;;;;;;4980275;28;20031;-74
2022/04/09 09:26:19;;;;;;;8.57;3.28;;;;;;;;;;4990010;28;20053;-73
2022/04/09 09:29:05;;;;;;;10.27;3.33;;;;;;;;;;4969106;28;20085;-71
2022/04/09 09:31:51;;;;;;;11.95;3.28;;;;;;;;;;4981791;28;20431;-70
2022/04/09 09:34:37;;;;;;;9.20;3.75;;;;;;;;;;4968961;28;20490;-67
2022/04/09 09:37:24;;;;;;;9.27;2.70;;;;;;;;;;4983950;28;20509;-62
2022/04/09 09:40:10;;;;;;;9.15;2.70;;;;;;;;;;4982601;28;20030;-63
2022/04/09 09:43:12;;;;;;;4.80;2.45;;;;;;;;;;4968377;28;20030;-61
2022/04/09 09:45:58;;;;;;;7.38;2.63;;;;;;;;;;4970602;28;20117;-63
2022/04/09 09:48:49;;;;;;;12.15;3.10;;;;;;;;;;4988316;28;20027;-60
2022/04/09 09:51:35;;;;;;;7.82;3.15;;;;;;;;;;4972177;28;20041;-61
2022/04/09 09:54:20;;;;;;;7.78;2.80;;;;;;;;;;4970352;28;20077;-66
2022/04/09 09:57:18;;;;;;;9.73;3.38;;;;;;;;;;4970334;28;20033;-64
2022/04/09 10:00:04;;;;;;;6.15;2.63;;;;;;;;;;4971886;28;20348;-66
2022/04/09 10:02:50;;;;;;;10.07;3.00;;;;;;;;;;4970427;28;20035;-64
2022/04/09 10:05:37;;;;;;;10.15;2.80;;;;;;;;;;4971667;28;20031;-64
2022/04/09 10:08:22;;;;;;;8.77;3.20;;;;;;;;;;4970757;28;20021;-64
2022/04/09 10:11:09;;;;;;;8.68;2.63;;;;;;;;;;4978731;28;20097;-65
2022/04/09 10:13:57;;;;;;;9.98;2.72;;;;;;;;;;4989950;28;20479;-68
2022/04/09 10:16:44;;;;;;;6.82;2.78;;;;;;;;;;4960998;28;20043;-69
2022/04/09 10:19:29;;;;;;;8.00;2.70;;;;;;;;;;4987368;28;20186;-69
2022/04/09 10:22:16;;;;;;;15.15;3.90;;;;;;;;;;4962270;28;20105;-68
2022/04/09 10:25:04;;;;;;;7.10;2.53;;;;;;;;;;4987007;28;20083;-70
2022/04/09 10:27:52;;;;;;;8.18;2.30;;;;;;;;;;5024066;28;20037;-68
2022/04/09 10:30:39;;;;;;;5.82;2.53;;;;;;;;;;5009739;28;20516;-63
2022/04/09 10:33:27;;;;;;;7.45;2.22;;;;;;;;;;4998078;28;20025;-69
2022/04/09 10:36:12;;;;;;;10.68;3.00;;;;;;;;;;4982071;28;20499;-66
2022/04/09 10:39:16;;;;;;;9.27;2.92;;;;;;;;;;5022946;28;20045;-67
2022/04/09 10:42:02;;;;;;;5.43;2.15;;;;;;;;;;4995617;28;20136;-67
2022/04/09 10:44:48;;;;;;;14.20;2.70;;;;;;;;;;5008145;28;20041;-69
2022/04/09 10:47:53;;;;;;;9.05;3.03;;;;;;;;;;4994898;28;20467;-69
2022/04/09 10:50:56;;;;;;;5.85;2.63;;;;;;;;;;4997627;28;20156;-67
2022/04/09 10:53:46;;;;;;;6.30;2.65;;;;;;;;;;4996138;28;20108;-65
2022/04/09 10:56:42;;;;;;;11.50;3.17;;;;;;;;;;5025148;28;20568;-63
2022/04/09 10:59:27;;;;;;;10.90;3.20;;;;;;;;;;4994743;28;20385;-63
2022/04/09 11:02:15;;;;;;;8.90;3.45;;;;;;;;;;4995458;28;20469;-64
2022/04/09 11:05:22;;;;;;;9.75;2.72;;;;;;;;;;4994305;28;20029;-64
2022/04/09 11:08:08;;;;;;;5.97;2.83;;;;;;;;;;4995066;28;20553;-73
2022/04/09 11:10:54;;;;;;;6.47;2.75;;;;;;;;;;4991588;28;20033;-64
2022/04/09 11:13:39;;;;;;;9.65;2.25;;;;;;;;;;5008353;28;20103;-64
2022/04/09 11:16:24;;;;;;;6.07;2.38;;;;;;;;;;4994263;28;20137;-65
2022/04/09 11:19:09;;;;;;;7.35;2.75;;;;;;;;;;4995267;28;20042;-63
2022/04/09 11:21:56;;;;;;;8.55;2.47;;;;;;;;;;4996547;28;20482;-61
2022/04/09 11:24:41;;;;;;;9.10;3.05;;;;;;;;;;5000575;28;20025;-67
2022/04/09 11:27:27;;;;;;;9.00;2.47;;;;;;;;;;5015322;28;20096;-64
2022/04/09 11:30:13;;;;;;;9.18;2.78;;;;;;;;;;4995909;28;20370;-72
2022/04/09 11:32:58;;;;;;;7.95;2.67;;;;;;;;;;4994841;28;20053;-72
2022/04/09 11:35:43;;;;;;;9.75;2.80;;;;;;;;;;5022039;28;20216;-71
2022/04/09 11:38:28;;;;;;;10.02;2.72;;;;;;;;;;4995255;28;20119;-70
2022/04/09 11:41:23;;;;;;;6.22;2.40;;;;;;;;;;5007637;28;20053;-71
2022/04/09 11:44:08;;;;;;;6.88;2.78;;;;;;;;;;4995160;28;20571;-68
2022/04/09 11:46:53;;;;;;;7.00;2.40;;;;;;;;;;4993879;28;20449;-63
2022/04/09 11:49:38;;;;;;;9.55;2.47;;;;;;;;;;4995342;28;20054;-63
2022/04/09 11:52:28;;;;;;;8.77;2.88;;;;;;;;;;5009022;28;20032;-63
2022/04/09 11:55:14;;;;;;;7.60;2.55;;;;;;;;;;4995521;28;20041;-65
2022/04/09 11:57:59;;;;;;;7.75;2.50;;;;;;;;;;5007224;28;20123;-64
2022/04/09 12:00:46;;;;;;;7.03;2.25;;;;;;;;;;4995010;28;20033;-64
2022/04/09 12:03:31;;;;;;;6.25;2.50;;;;;;;;;;5010675;28;20423;-65
2022/04/09 12:06:17;;;;;;;7.35;2.53;;;;;;;;;;5002812;28;20038;-72
2022/04/09 12:09:02;;;;;;;10.00;2.30;;;;;;;;;;4984755;28;20034;-73
2022/04/09 12:11:53;;;;;;;5.10;2.53;;;;;;;;;;4992450;28;20018;-72
2022/04/09 12:14:40;;;;;;;7.70;2.40;;;;;;;;;;5027874;28;20030;-72
2022/04/09 12:17:33;;;;;;;8.40;2.38;;;;;;;;;;4974211;28;20461;-74
2022/04/09 12:20:31;;;;;;;6.75;2.60;;;;;;;;;;4996625;28;20484;-68
2022/04/09 12:23:27;;;;;;;4.30;2.15;;;;;;;;;;5007299;28;20500;-67
2022/04/09 12:26:22;;;;;;;8.25;2.80;;;;;;;;;;4995866;28;20108;-66
2022/04/09 12:29:30;;;;;;;6.40;2.42;;;;;;;;;;4993509;28;20044;-66
2022/04/09 12:32:17;;;;;;;10.20;2.80;;;;;;;;;;5008891;28;20042;-66
2022/04/09 12:35:03;;;;;;;3.97;2.17;;;;;;;;;;5007077;28;20448;-66
2022/04/09 12:37:50;;;;;;;6.93;2.15;;;;;;;;;;5001157;28;20022;-66
2022/04/09 12:40:37;;;;;;;8.10;2.53;;;;;;;;;;5008258;28;20022;-68
2022/04/09 12:43:40;;;;;;;7.40;2.00;;;;;;;;;;5008055;28;20048;-65
2022/04/09 12:46:25;;;;;;;5.50;2.15;;;;;;;;;;4991838;28;20065;-62
2022/04/09 12:49:10;;;;;;;5.43;1.88;;;;;;;;;;5022725;28;20477;-62
2022/04/09 12:51:56;;;;;;;10.00;2.20;;;;;;;;;;4997296;28;20034;-61
2022/04/09 12:54:41;;;;;;;6.25;2.90;;;;;;;;;;5006979;28;20083;-64
2022/04/09 12:57:29;;;;;;;11.45;2.78;;;;;;;;;;4994558;28;20041;-66
2022/04/09 13:00:15;;;;;;;10.43;2.22;;;;;;;;;;5021331;28;20125;-71
2022/04/09 13:03:01;;;;;;;3.83;1.90;;;;;;;;;;4981317;28;20025;-72
2022/04/09 13:05:46;;;;;;;5.50;2.20;;;;;;;;;;4979532;28;20029;-74
2022/04/09 13:08:31;;;;;;;6.88;1.90;;;;;;;;;;4994103;28;20076;-72
2022/04/09 13:11:17;;;;;;;8.30;2.75;;;;;;;;;;5017259;28;20464;-73
2022/04/09 13:14:02;;;;;;;8.18;2.78;;;;;;;;;;4998034;28;20026;-73
2022/04/09 13:16:48;;;;;;;6.90;2.30;;;;;;;;;;5006365;28;20481;-61
2022/04/09 13:19:35;;;;;;;6.45;2.08;;;;;;;;;;5008540;28;20112;-63
2022/04/09 13:22:20;;;;;;;6.65;2.30;;;;;;;;;;5030298;28;20057;-62
2022/04/09 13:25:06;;;;;;;9.82;2.80;;;;;;;;;;5024053;28;20520;-61
2022/04/09 13:27:54;;;;;;;8.45;2.38;;;;;;;;;;5016560;28;20162;-64
2022/04/09 13:30:40;;;;;;;7.68;2.33;;;;;;;;;;5018676;28;20055;-65
2022/04/09 13:33:26;;;;;;;6.78;2.40;;;;;;;;;;4998477;28;20033;-68
2022/04/09 13:36:11;;;;;;;5.95;2.50;;;;;;;;;;4996671;28;20045;-62
2022/04/09 13:38:56;;;;;;;5.80;2.47;;;;;;;;;;4998352;28;20156;-68
2022/04/09 13:41:42;;;;;;;6.15;2.33;;;;;;;;;;4996682;28;20030;-68
2022/04/09 13:44:27;;;;;;;11.05;2.33;;;;;;;;;;4996889;28;20040;-68
2022/04/09 13:47:12;;;;;;;8.05;1.83;;;;;;;;;;4996739;28;20052;-70
2022/04/09 13:49:57;;;;;;;10.27;2.10;;;;;;;;;;4997797;28;20038;-70
2022/04/09 13:52:43;;;;;;;3.92;1.70;;;;;;;;;;4997108;28;20076;-72
2022/04/09 13:55:28;;;;;;;5.93;1.63;;;;;;;;;;5011176;28;20461;-63
2022/04/09 13:58:13;;;;;;;8.10;2.47;;;;;;;;;;4996607;28;20061;-61
2022/04/09 14:00:59;;;;;;;4.78;2.13;;;;;;;;;;5024915;28;20527;-64
2022/04/09 14:03:44;;;;;;;4.85;2.08;;;;;;;;;;5005572;28;20025;-63
2022/04/09 14:06:29;;;;;;;7.93;2.13;;;;;;;;;;4998695;28;20034;-62
2022/04/09 14:09:15;;;;;;;7.03;2.00;;;;;;;;;;5014121;28;20021;-62
2022/04/09 14:12:00;;;;;;;9.00;2.50;;;;;;;;;;5023237;28;20541;-68
2022/04/09 14:14:45;;;;;;;10.05;2.45;;;;;;;;;;4982899;28;20037;-69
2022/04/09 14:17:31;;;;;;;6.15;2.05;;;;;;;;;;5005276;28;20034;-66
2022/04/09 14:20:17;;;;;;;8.77;2.53;;;;;;;;;;4997527;28;20026;-67
2022/04/09 14:23:03;;;;;;;9.57;2.53;;;;;;;;;;5009654;28;20033;-67
2022/04/09 14:25:48;;;;;;;4.80;1.85;;;;;;;;;;5013600;28;20033;-65
2022/04/09 14:28:33;;;;;;;8.30;1.92;;;;;;;;;;4990789;28;20504;-66
2022/04/09 14:31:19;;;;;;;8.95;2.47;;;;;;;;;;4996192;28;20485;-72
2022/04/09 14:34:05;;;;;;;6.03;2.22;;;;;;;;;;5022892;28;20477;-72
2022/04/09 14:36:50;;;;;;;6.47;1.95;;;;;;;;;;4997035;28;20034;-73
2022/04/09 14:39:36;;;;;;;5.13;2.53;;;;;;;;;;5000387;28;20065;-73
2022/04/09 14:42:22;;;;;;;4.82;1.90;;;;;;;;;;5010834;28;20454;-75
2022/04/09 14:45:12;;;;;;;8.98;2.10;;;;;;;;;;5006211;28;20022;-72
2022/04/09 14:47:57;;;;;;;4.57;1.90;;;;;;;;;;5001106;28;20045;-72
2022/04/09 14:50:42;;;;;;;5.53;2.28;;;;;;;;;;4979387;28;20044;-63
2022/04/09 14:53:28;;;;;;;6.55;2.00;;;;;;;;;;4995415;28;20041;-62
2022/04/09 14:56:13;;;;;;;5.80;2.13;;;;;;;;;;4996844;28;20042;-63
2022/04/09 14:58:59;;;;;;;6.68;2.05;;;;;;;;;;4995548;28;20390;-62
2022/04/09 15:01:45;;;;;;;7.03;2.38;;;;;;;;;;5005482;28;20026;-62
2022/04/09 15:04:30;;;;;;;5.88;2.00;;;;;;;;;;4995242;28;20026;-62
2022/04/09 15:07:16;;;;;;;6.03;2.15;;;;;;;;;;5010300;28;20101;-72
2022/04/09 15:10:02;;;;;;;7.97;2.05;;;;;;;;;;5028924;28;20408;-71
2022/04/09 15:12:48;;;;;;;6.05;1.98;;;;;;;;;;4997059;28;20389;-73
2022/04/09 15:15:33;;;;;;;6.97;2.65;;;;;;;;;;4994825;28;20448;-70
2022/04/09 15:18:19;;;;;;;3.05;1.63;;;;;;;;;;5023943;28;20029;-70
2022/04/09 15:21:06;;;;;;;8.18;2.28;;;;;;;;;;5023082;28;20040;-71
2022/04/09 15:23:51;;;;;;;8.98;2.13;;;;;;;;;;5000524;28;20026;-74
2022/04/09 15:26:36;;;;;;;8.80;1.95;;;;;;;;;;5021653;28;20048;-68
2022/04/09 15:29:25;;;;;;;7.45;2.50;;;;;;;;;;4995879;28;20503;-67
2022/04/09 15:32:11;;;;;;;8.02;3.03;;;;;;;;;;4995346;28;20041;-70
2022/04/09 15:34:57;;;;;;;6.78;2.42;;;;;;;;;;5009774;28;20053;-69
2022/04/09 15:37:42;;;;;;;6.72;1.50;;;;;;;;;;5017676;28;20044;-69
2022/04/09 15:40:28;;;;;;;6.95;2.17;;;;;;;;;;5013224;28;20026;-67
2022/04/09 15:43:13;;;;;;;5.60;2.13;;;;;;;;;;4996111;28;20029;-68
2022/04/09 15:45:58;;;;;;;4.13;2.03;;;;;;;;;;5021944;28;20444;-68
2022/04/09 15:48:44;;;;;;;6.95;2.65;;;;;;;;;;4996240;28;20029;-67
2022/04/09 15:51:29;;;;;;;11.88;3.35;;;;;;;;;;4998093;28;20112;-66
2022/04/09 15:54:15;;;;;;;8.95;2.63;;;;;;;;;;4995601;28;20038;-66
2022/04/09 15:57:00;;;;;;;4.32;1.92;;;;;;;;;;4980910;28;20038;-65
2022/04/09 15:59:45;;;;;;;3.33;1.48;;;;;;;;;;4995558;28;20113;-65
2022/04/09 16:02:34;;;;;;;3.67;1.45;;;;;;;;;;4996489;28;20108;-69
2022/04/09 16:05:20;;;;;;;7.68;2.20;;;;;;;;;;4995550;28;20033;-72
2022/04/09 16:08:05;;;;;;;7.57;2.53;;;;;;;;;;4994045;28;20083;-72
2022/04/09 16:10:50;;;;;;;8.82;2.13;;;;;;;;;;4995510;28;20026;-72
2022/04/09 16:13:36;;;;;;;6.82;2.88;;;;;;;;;;4995489;28;20068;-73
2022/04/09 16:16:21;;;;;;;4.63;1.90;;;;;;;;;;5022416;28;20034;-73
2022/04/09 16:19:07;;;;;;;7.13;2.28;;;;;;;;;;5012759;28;20477;-72
2022/04/09 16:21:53;;;;;;;7.03;2.88;;;;;;;;;;4994062;28;20449;-71
2022/04/09 16:24:38;;;;;;;8.10;2.13;;;;;;;;;;4995250;28;20034;-72
2022/04/09 16:27:23;;;;;;;4.80;1.92;;;;;;;;;;5019637;28;20070;-71
2022/04/09 16:30:09;;;;;;;12.38;2.88;;;;;;;;;;4995010;28;20117;-75
2022/04/09 16:32:54;;;;;;;4.75;2.00;;;;;;;;;;4989038;28;20083;-71
2022/04/09 16:35:39;;;;;;;5.68;2.15;;;;;;;;;;5015722;28;20283;-71